Latest Coastal Weather Observations for Legendre Island

IDW60701

Issued at 11:22 am WST Saturday 30 April 2016 (issued every 10 minutes, with the page automatically refreshed every 10 minutes)

About coastal observations | Map of coastal stations | Coastal observations for WA | Marine services | Other Formats
Station Details ID: 004095 Name: LEGENDRE ISLAND Lat: -20.36 Lon: 116.84 Height: 29.0 m
Data from the previous 72 hours. | See also: Recent months at Legendre Island
Date/Time
WST
Temp

°C
Wind Pressure Rain
since 9am
mm
Weather Cloud Vis
km
Sea
Height
m
Swell
Dir
 
Speed
knots
Gust
knots
hPa Trend Height
m
Period
s
Dir
30/11:00am 29.8 NNE 10 12 1012.5 - - - - - - - - -
30/10:30am 29.6 NNE 10 13 1012.7 - - - - - - - - -
30/10:00am 29.4 NNE 11 15 1012.7 - - - - - - - - -
30/09:30am 29.4 NNE 12 14 1012.7 - - - - - - - - -
30/09:00am 28.9 NNE 11 13 1012.6 - - - - - - - - -
30/08:30am 28.4 NNE 10 12 1012.4 - - - - - - - - -
30/08:00am 27.8 NNE 9 11 1012.2 - - - - - - - - -
30/07:30am 27.7 NNE 8 9 1011.8 - - - - - - - - -
30/07:00am 27.1 NNE 9 10 1011.6 - - - - - - - - -
30/06:30am 26.8 NNE 7 8 1011.3 - - - - - - - - -
30/06:00am 26.7 N 6 7 1011.3 - - - - - - - - -
30/05:30am 26.6 N 6 7 1011.1 - - - - - - - - -
30/05:00am 26.3 N 5 7 1010.8 - - - - - - - - -
30/04:30am 26.5 NNW 5 5 1010.6 - - - - - - - - -
30/04:00am 26.0 NW 4 5 1010.4 - - - - - - - - -
30/03:30am 26.0 WNW 5 6 1010.3 - - - - - - - - -
30/03:00am 25.9 WNW 7 7 1010.1 - - - - - - - - -
30/02:30am 26.1 W 8 9 1010.2 - - - - - - - - -
30/02:00am 26.2 WNW 9 10 1010.0 - - - - - - - - -
30/01:30am 26.3 WNW 9 11 1010.1 - - - - - - - - -
30/01:00am 25.8 W 9 10 1010.2 - - - - - - - - -
30/12:30am 26.2 W 10 12 1010.4 - - - - - - - - -
30/12:00am 26.1 W 9 12 1010.8 - - - - - - - - -
 
Date/Time
WST
Temp

°C
Wind Pressure Rain
since 9am
mm
Weather Cloud Vis
km
Sea
Height
m
Swell
Dir
 
Speed
knots
Gust
knots
hPa Trend Height
m
Period
s
Dir
29/11:30pm 26.1 WNW 10 12 1011.1 - - - - - - - - -
29/11:00pm 26.0 W 10 12 1011.4 - - - - - - - - -
29/10:30pm 26.1 W 10 11 1011.6 - - - - - - - - -
29/10:00pm 26.0 W 9 12 1011.9 - - - - - - - - -
29/09:30pm 26.2 W 10 13 1011.9 - - - - - - - - -
29/09:00pm 26.2 WNW 10 12 1011.9 - - - - - - - - -
29/08:30pm 26.3 WNW 10 11 1011.9 - - - - - - - - -
29/08:00pm 26.3 WNW 10 12 1011.7 - - - - - - - - -
29/07:30pm 26.5 WNW 9 11 1011.5 - - - - - - - - -
29/07:00pm 26.5 WNW 9 11 1011.3 - - - - - - - - -
29/06:30pm - WNW 8 10 1011.1 - - - - - - - - -
29/06:00pm 26.6 WNW 8 10 1010.9 - - - - - - - - -
29/05:30pm 27.6 WNW 8 10 1010.6 - - - - - - - - -
29/05:00pm 28.3 WNW 8 10 1010.3 - - - - - - - - -
29/04:30pm 28.9 WNW 7 10 1010.2 - - - - - - - - -
29/04:00pm 29.6 WNW 7 9 1010.2 - - - - - - - - -
29/03:30pm 29.1 WNW 7 9 1010.1 - - - - - - - - -
29/03:00pm 29.6 NW 7 9 1010.0 - - - - - - - - -
29/02:30pm 29.2 NNW 6 7 1010.1 - - - - - - - - -
29/02:00pm 29.7 N 5 6 1010.1 - - - - - - - - -
29/01:30pm 30.4 N 5 6 1010.3 - - - - - - - - -
29/01:00pm 30.3 N 5 7 1010.4 - - - - - - - - -
29/12:30pm 31.1 NNE 4 5 1010.8 - - - - - - - - -
29/12:00pm 30.2 N 3 5 1011.2 - - - - - - - - -
29/11:30am 29.7 NNE 4 6 1011.3 - - - - - - - - -
29/11:00am 29.7 N 3 5 1011.7 - - - - - - - - -
29/10:30am 29.6 SW 5 8 1012.0 - - - - - - - - -
29/10:00am 29.7 SW 6 8 1012.2 - - - - - - - - -
29/09:30am 28.0 SW 6 8 1012.0 - - - - - - - - -
29/09:00am 28.6 SW 7 8 1012.1 - - - - - - - - -
29/08:30am 27.7 SSW 5 6 1011.8 - - - - - - - - -
29/08:00am 27.5 SSW 7 8 1011.8 - - - - - - - - -
29/07:30am 26.5 SW 9 10 1011.7 - - - - - - - - -
29/07:00am 25.7 SW 7 8 1011.2 - - - - - - - - -
29/06:30am 24.9 SW 7 8 1011.0 - - - - - - - - -
29/06:00am 25.6 SW 9 11 1010.8 - - - - - - - - -
29/05:30am 25.6 SW 10 11 1010.7 - - - - - - - - -
29/05:00am 25.4 SW 9 9 1010.5 - - - - - - - - -
29/04:30am 25.8 SW 11 12 1010.4 - - - - - - - - -
29/04:00am 25.8 SW 11 13 1010.1 - - - - - - - - -
29/03:30am 26.1 SW 11 13 1010.0 - - - - - - - - -
29/03:00am 25.9 SW 10 12 1009.9 - - - - - - - - -
29/02:30am 25.5 SW 11 13 1010.0 - - - - - - - - -
29/02:00am 25.5 SW 13 16 1009.9 - - - - - - - - -
29/01:30am 25.5 SW 13 15 1010.0 - - - - - - - - -
29/01:00am 25.6 SW 12 15 1010.3 - - - - - - - - -
29/12:30am 25.9 SW 15 19 1010.6 - - - - - - - - -
29/12:00am 26.2 SW 17 20 1010.6 - - - - - - - - -
 
Date/Time
WST
Temp

°C
Wind Pressure Rain
since 9am
mm
Weather Cloud Vis
km
Sea
Height
m
Swell
Dir
 
Speed
knots
Gust
knots
hPa Trend Height
m
Period
s
Dir
28/11:30pm 26.4 SW 15 18 1010.8 - - - - - - - - -
28/11:00pm 26.8 SW 17 20 1010.7 - - - - - - - - -
28/10:30pm 27.0 SW 17 20 1010.9 - - - - - - - - -
28/10:00pm 27.5 SW 17 21 1010.9 - - - - - - - - -
28/09:30pm 27.8 SW 17 22 1011.0 - - - - - - - - -
28/09:00pm 27.9 SW 15 18 1011.0 - - - - - - - - -
28/08:30pm 28.0 SW 17 20 1010.9 - - - - - - - - -
28/08:00pm 28.1 WSW 15 20 1010.8 - - - - - - - - -
28/07:30pm 27.9 WSW 16 19 1010.6 - - - - - - - - -
28/07:00pm 27.6 WSW 16 19 1010.5 - - - - - - - - -
28/06:30pm 27.6 WSW 15 18 1010.2 - - - - - - - - -
28/06:00pm 27.6 W 16 19 1010.0 - - - - - - - - -
28/05:30pm 28.1 W 15 19 1009.9 - - - - - - - - -
28/05:00pm 28.5 W 16 19 1009.6 - - - - - - - - -
28/04:30pm 29.0 W 18 21 1009.6 - - - - - - - - -
28/04:00pm 29.6 W 17 21 1009.6 - - - - - - - - -
28/03:30pm 29.9 W 17 20 1009.5 - - - - - - - - -
28/03:00pm 30.6 W 13 15 1009.5 - - - - - - - - -
28/02:30pm 30.7 WSW 16 18 1009.6 - - - - - - - - -
28/02:00pm 30.8 WSW 15 17 1009.7 - - - - - - - - -
28/01:30pm 31.0 WSW 13 16 1010.0 - - - - - - - - -
28/01:00pm 31.0 W 11 13 1010.3 - - - - - - - - -
28/12:30pm 30.6 W 11 13 1010.8 - - - - - - - - -
28/12:00pm 30.6 WSW 11 13 1011.3 - - - - - - - - -
28/11:30am 31.5 WSW 8 11 1011.8 - - - - - - - - -
28/11:00am 31.1 SW 9 11 1012.1 - - - - - - - - -
28/10:30am 31.4 SW 10 13 1012.5 - - - - - - - - -
28/10:00am 30.4 SW 10 11 1012.6 - - - - - - - - -
28/09:30am 30.3 SSW 10 12 1012.7 - - - - - - - - -
28/09:00am - SSW 13 15 1012.5 - - - - - - - - -
28/08:30am - SSW 11 14 1012.5 - - - - - - - - -
28/08:00am - SSW 11 13 1012.1 - - - - - - - - -
28/07:30am - SW 10 12 1011.8 - - - - - - - - -
28/07:00am - SSW 11 13 1011.4 - - - - - - - - -
28/06:30am - SSW 11 13 1011.1 - - - - - - - - -
28/06:00am - SW 11 13 1010.8 - - - - - - - - -
28/05:30am - SSW 10 13 1010.6 - - - - - - - - -
28/05:00am - SSW 12 14 1010.5 - - - - - - - - -
28/04:30am - SSW 13 15 1010.3 - - - - - - - - -
28/04:00am - SSW 13 15 1010.1 - - - - - - - - -
28/03:30am - SSW 15 17 1010.0 - - - - - - - - -
28/03:00am - SSW 13 18 1010.2 - - - - - - - - -
28/02:30am - SSW 14 18 1010.2 - - - - - - - - -
28/02:00am - SW 14 18 1010.2 - - - - - - - - -
28/01:30am - SW 13 15 1010.5 - - - - - - - - -
28/01:00am - SW 13 16 1010.5 - - - - - - - - -
28/12:30am - SW 15 17 1010.5 - - - - - - - - -
28/12:00am - SW 14 17 1010.5 - - - - - - - - -
 
Date/Time
WST
Temp

°C
Wind Pressure Rain
since 9am
mm
Weather Cloud Vis
km
Sea
Height
m
Swell
Dir
 
Speed
knots
Gust
knots
hPa Trend Height
m
Period
s
Dir
27/11:30pm - SW 13 15 1010.7 - - - - - - - - -
27/11:00pm 28.0 WSW 14 17 1011.0 - - - - - - - - -
27/10:30pm 27.8 WSW 13 15 1011.1 - - - - - - - - -
27/10:00pm 27.7 WSW 13 15 1011.2 - - - - - - - - -
27/09:30pm 27.9 WSW 13 15 1011.3 - - - - - - - - -
27/09:00pm 28.1 WSW 13 16 1011.4 - - - - - - - - -
27/08:30pm 28.0 WSW 12 14 1011.2 - - - - - - - - -
27/08:00pm 28.0 WSW 13 14 1011.0 - - - - - - - - -
27/07:30pm 27.9 WSW 11 13 1010.7 - - - - - - - - -
27/07:00pm 28.0 WSW 10 12 1010.4 - - - - - - - - -
27/06:30pm 28.4 WSW 10 13 1010.1 - - - - - - - - -
27/06:00pm 28.6 WSW 11 13 1009.9 - - - - - - - - -
27/05:30pm 29.2 WSW 12 13 1009.7 - - - - - - - - -
27/05:00pm 29.9 W 10 11 1009.7 - - - - - - - - -
27/04:30pm 30.8 WNW 8 10 1009.5 - - - - - - - - -
27/04:00pm 31.3 NW 7 9 1009.4 - - - - - - - - -
27/03:30pm 31.1 NNW 6 8 1009.4 - - - - - - - - -
27/03:00pm 31.7 N 5 6 1009.3 - - - - - - - - -
27/02:30pm 31.7 NNE 5 6 1009.4 - - - - - - - - -
27/02:00pm 32.4 NE 6 7 1009.5 - - - - - - - - -
27/01:30pm 31.7 ENE 6 7 1009.9 - - - - - - - - -
27/01:00pm 32.1 E 6 7 1010.3 - - - - - - - - -
27/12:30pm 32.2 E 8 9 1010.6 - - - - - - - - -
27/12:00pm 32.1 E 8 10 1011.0 - - - - - - - - -
27/11:30am 31.8 E 11 13 1011.4 - - - - - - - - -

Other Formats:

Comma delimited format used in spreadsheet applications
http://www.bom.gov.au/fwo/IDW60701/IDW60701.94307.axf

JavaScript Object Notation format (JSON) in row-major order
http://www.bom.gov.au/fwo/IDW60701/IDW60701.94307.json